Rocky Branch, Louisiana
Current Conditions -  °F | °C
As of 11:53 AM on Thursday 29 Jan 2015 (Local Time) from KMLU Reporting Station
Clear Clear  
Wind Chill: 70°   Ceiling: Unl
Heat Index: 70°   Visibility: 10mi
Dew Point: 53°   Wind: 13mph
Humidity: 55%   Direction: 250°WSW
Pressure: 30.18"   Gusts: NA
Location:  32.7394°N, 92.2308°W
Report Text: KMLU 291753Z 25011KT 10SM CLR 21/12 A3018 RMK AO2 SLP220 T02110117 10211 20094 58000
Loading
Personal Weather Stations






























Interactive Weather Map New forecast layout! Learn more

10-Day Weather Forecast

Advertisements
Track Severe Weather on mobile